Ozgur Aksoy — 9HA2587 — position and weather

sailwx.info

Track history (hours):
 
Tides and Currents Weather Stations Pressure Air Temp Water Temp Dewpoint Dewpoint Depression Visibility Wind Speed Wind Dir Waves Ship Positions

Ozgur Aksoy

Last reported at 2017-Feb-08 07:28 UTC. Time now 2017-Mar-25 02:00 UTC.
Position N 38°16' E 121°33'.
Warning: this ship's position is 44 days out of date.

Length 196 m; draft 7.4 m.

Type: Cargo ship. MMSI: 248950000.

Date/timePositionNaut miles runAvg speedWind from/ knotsBaromVisibWave heightAir tempDewpointWater temp
2017-Feb-08 07:28N 38°16' E 121°33'2014.4
2017-Feb-08 06:05N 38°26' E 121°11'814.4
2017-Feb-08 05:33N 38°30' E 121°02'1413.9
2017-Feb-08 04:33N 38°37' E 120°47'  
2017-Feb-03 06:25N 38°44' E 120°50'1113.3
2017-Feb-03 05:33N 38°35' E 120°60'1412.8
2017-Feb-03 04:29N 38°28' E 121°15'1212.6
2017-Feb-03 03:32N 38°22' E 121°28'2613.0
2017-Feb-03 01:30N 38°09' E 121°57'1313.7
2017-Feb-03 00:33N 38°02' E 122°11'  
Track history (hours):
 
Tides and Currents Weather Stations Pressure Air Temp Water Temp Dewpoint Dewpoint Depression Visibility Wind Speed Wind Dir Waves Ship Positions

Ozgur Aksoy

Last reported at 2017-Feb-08 07:28 UTC. Time now 2017-Mar-25 02:00 UTC.
Position N 38°16' E 121°33'.
Warning: this ship's position is 44 days out of date.

Length 196 m; draft 7.4 m.

Type: Cargo ship. MMSI: 248950000.

Date/timePositionNaut miles runAvg speedWind from/ knotsBaromVisibWave heightAir tempDewpointWater temp
2017-Feb-08 07:28N 38°16' E 121°33'2014.4
2017-Feb-08 06:05N 38°26' E 121°11'814.4
2017-Feb-08 05:33N 38°30' E 121°02'1413.9
2017-Feb-08 04:33N 38°37' E 120°47'  
2017-Feb-03 06:25N 38°44' E 120°50'1113.3
2017-Feb-03 05:33N 38°35' E 120°60'1412.8
2017-Feb-03 04:29N 38°28' E 121°15'1212.6
2017-Feb-03 03:32N 38°22' E 121°28'2613.0
2017-Feb-03 01:30N 38°09' E 121°57'1313.7
2017-Feb-03 00:33N 38°02' E 122°11'  

Dump ship's entire track history